Time;durP1;ratioP1;P1;durP2;ratioP2;P2;SDS_P1;SDS_P2;PMS_P1;PMS_P2;Temp;Humidity;BMP_temperature;BMP_pressure;BME280_temperature;BME280_humidity;BME280_pressure;Samples;Min_cycle;Max_cycle;Signal;HPM_P1;HPM_P2
2022/08/27 00:12:55;;;;;;;;;;;;;;;20.12;64.83;99050.28;5108730;23;1653;-60
2022/08/27 00:15:22;;;;;;;;;;;;;;;20.13;64.86;99055.41;4995978;28;812;-60
2022/08/27 00:17:50;;;;;;;;;;;;;;;20.13;65.08;99054.63;4978391;28;1387;-60
2022/08/27 00:20:17;;;;;;;;;;;;;;;20.08;65.18;99044.09;4978332;28;1303;-60
2022/08/27 00:22:44;;;;;;;;;;;;;;;19.99;65.48;99044.97;4995885;28;942;-60
2022/08/27 00:25:11;;;;;;;;;;;;;;;19.93;65.92;99058.91;4978293;28;1221;-60
2022/08/27 00:27:38;;;;;;;;;;;;;;;19.87;66.31;99052.44;4995746;28;828;-60
2022/08/27 00:30:07;;;;;;;;;;;;;;;19.83;66.75;99059.50;4995615;28;1910;-60
2022/08/27 00:32:34;;;;;;;;;;;;;;;19.78;67.08;99053.31;4995672;28;894;-60
2022/08/27 00:35:00;;;;;;;;;;;;;;;19.77;67.31;99065.78;4995522;28;840;-59
2022/08/27 00:37:27;;;;;;;;;;;;;;;19.75;67.41;99053.50;4995613;28;808;-59
2022/08/27 00:39:54;;;;;;;;;;;;;;;19.73;67.52;99056.03;4995524;28;868;-59
2022/08/27 00:42:21;;;;;;;;;;;;;;;19.70;67.80;99051.41;4977853;28;1348;-60
2022/08/27 00:44:48;;;;;;;;;;;;;;;19.69;67.91;99049.81;4995425;28;863;-60
2022/08/27 00:47:18;;;;;;;;;;;;;;;19.67;68.17;99053.09;4995406;28;911;-60
2022/08/27 00:49:49;;;;;;;;;;;;;;;19.64;68.59;99054.06;4995201;28;1951;-59
2022/08/27 00:52:20;;;;;;;;;;;;;;;19.57;68.88;99052.41;4995215;28;848;-60
2022/08/27 00:54:48;;;;;;;;;;;;;;;19.48;69.12;99043.31;4995331;28;895;-59
2022/08/27 00:57:16;;;;;;;;;;;;;;;19.40;69.24;99048.53;4995071;28;828;-59
2022/08/27 00:59:44;;;;;;;;;;;;;;;19.32;69.49;99050.19;4995202;28;812;-59
2022/08/27 01:02:20;;;;;;;;;;;;;;;19.27;69.89;99046.00;4995072;28;816;-60
2022/08/27 01:05:02;;;;;;;;;;;;;;;19.23;70.20;99041.84;4977560;28;1224;-60
2022/08/27 01:07:30;;;;;;;;;;;;;;;19.17;70.54;99053.72;4995067;28;816;-59
2022/08/27 01:09:59;;;;;;;;;;;;;;;19.11;70.66;99047.22;4994702;28;1898;-60
2022/08/27 01:12:27;;;;;;;;;;;;;;;19.07;70.93;99048.66;4994642;28;1296;-59
2022/08/27 01:14:55;;;;;;;;;;;;;;;19.03;70.95;99048.06;4994860;28;809;-60
2022/08/27 01:17:22;;;;;;;;;;;;;;;19.00;71.07;99047.00;4994795;28;800;-59
2022/08/27 01:19:52;;;;;;;;;;;;;;;18.96;71.19;99040.81;4994783;28;809;-59
2022/08/27 01:22:39;;;;;;;;;;;;;;;18.91;71.42;99044.28;4977247;28;1241;-59
2022/08/27 01:25:09;;;;;;;;;;;;;;;18.87;71.49;99052.09;4992989;28;1235;-60
2022/08/27 01:27:37;;;;;;;;;;;;;;;18.86;71.47;99053.34;4994551;28;923;-59
2022/08/27 01:30:05;;;;;;;;;;;;;;;18.91;71.20;99042.25;4977042;28;1975;-59
2022/08/27 01:32:34;;;;;;;;;;;;;;;18.93;71.05;99039.75;4994532;28;939;-60
2022/08/27 01:35:02;;;;;;;;;;;;;;;18.96;70.98;99038.78;4994740;28;874;-60
2022/08/27 01:37:29;;;;;;;;;;;;;;;18.97;71.18;99031.94;4977160;28;1233;-60
2022/08/27 01:39:57;;;;;;;;;;;;;;;18.97;71.15;99042.38;4976955;28;1391;-59
2022/08/27 01:42:31;;;;;;;;;;;;;;;18.79;71.18;99020.88;4994386;28;895;-59
2022/08/27 01:45:00;;;;;;;;;;;;;;;18.94;71.42;99041.28;4994290;28;816;-59
2022/08/27 01:47:28;;;;;;;;;;;;;;;18.93;71.72;99050.19;4994506;28;928;-60
2022/08/27 01:49:55;;;;;;;;;;;;;;;18.92;71.80;99046.59;4994111;28;1890;-59
2022/08/27 01:52:25;;;;;;;;;;;;;;;18.92;71.92;99049.41;4994206;28;872;-59
2022/08/27 01:54:52;;;;;;;;;;;;;;;18.93;71.95;99045.34;4994223;28;876;-59
2022/08/27 01:57:20;;;;;;;;;;;;;;;18.95;71.79;99051.25;4994038;28;812;-60
2022/08/27 01:59:47;;;;;;;;;;;;;;;19.00;71.86;99043.44;4994031;28;816;-59
2022/08/27 02:02:15;;;;;;;;;;;;;;;19.02;71.75;99044.50;4993962;28;883;-60
2022/08/27 02:04:42;;;;;;;;;;;;;;;19.09;71.45;99046.16;4993969;28;844;-59
2022/08/27 02:07:10;;;;;;;;;;;;;;;19.12;71.34;99046.00;4976439;28;1217;-59
2022/08/27 02:09:37;;;;;;;;;;;;;;;19.18;71.32;99048.88;4976233;28;1953;-59
2022/08/27 02:12:04;;;;;;;;;;;;;;;19.24;71.15;99043.41;4972960;28;1399;-60
2022/08/27 02:14:31;;;;;;;;;;;;;;;19.33;70.79;99044.09;4974627;28;895;-59
2022/08/27 02:16:58;;;;;;;;;;;;;;;19.38;70.56;99042.66;4973033;28;1288;-59
2022/08/27 02:19:26;;;;;;;;;;;;;;;19.38;70.46;99051.81;4974239;28;1037;-59
2022/08/27 02:21:53;;;;;;;;;;;;;;;19.38;70.46;99042.66;4974213;28;879;-59
2022/08/27 02:24:21;;;;;;;;;;;;;;;19.36;70.52;99050.75;4974130;28;836;-59
2022/08/27 02:26:48;;;;;;;;;;;;;;;19.31;70.71;99055.00;4974498;28;805;-59
2022/08/27 02:29:14;;;;;;;;;;;;;;;19.28;70.74;99044.75;4974405;28;800;-59
2022/08/27 02:31:41;;;;;;;;;;;;;;;19.27;70.81;99057.22;4974234;28;1964;-60
2022/08/27 02:34:09;;;;;;;;;;;;;;;19.25;70.82;99056.94;4973944;28;852;-59
2022/08/27 02:36:37;;;;;;;;;;;;;;;19.24;70.79;99058.16;4974261;28;813;-59
2022/08/27 02:39:04;;;;;;;;;;;;;;;19.25;70.84;99061.75;4972744;28;1011;-59
2022/08/27 02:41:31;;;;;;;;;;;;;;;19.23;70.85;99059.44;4974059;28;887;-59
2022/08/27 02:43:58;;;;;;;;;;;;;;;19.31;70.54;99059.81;4974056;28;844;-59
2022/08/27 02:46:25;;;;;;;;;;;;;;;19.46;69.94;99062.63;4974065;28;793;-59
2022/08/27 02:48:54;;;;;;;;;;;;;;;19.54;69.58;99061.00;4973935;28;817;-59
2022/08/27 02:51:24;;;;;;;;;;;;;;;19.54;69.42;99061.00;4973649;28;1925;-59
2022/08/27 02:53:50;;;;;;;;;;;;;;;19.51;69.51;99067.59;4973584;28;867;-59
2022/08/27 02:56:18;;;;;;;;;;;;;;;19.51;69.51;99076.00;4973579;28;820;-59
2022/08/27 02:58:44;;;;;;;;;;;;;;;19.51;69.40;99073.19;4973569;28;851;-60
2022/08/27 03:01:11;;;;;;;;;;;;;;;19.44;69.55;99084.75;4973464;28;836;-59
2022/08/27 03:03:38;;;;;;;;;;;;;;;19.36;70.05;99079.53;4973488;28;883;-59
2022/08/27 03:06:05;;;;;;;;;;;;;;;19.35;70.32;99082.81;4972163;28;1466;-59
2022/08/27 03:08:32;;;;;;;;;;;;;;;19.43;69.98;99084.00;4973246;28;874;-60
2022/08/27 03:10:59;;;;;;;;;;;;;;;19.48;69.76;99085.34;4972039;28;1943;-60
2022/08/27 03:13:27;;;;;;;;;;;;;;;19.52;69.66;99078.31;4989631;28;1283;-59
2022/08/27 03:15:54;;;;;;;;;;;;;;;19.57;69.54;99082.47;4975258;28;1505;-59
2022/08/27 03:18:21;;;;;;;;;;;;;;;19.58;69.65;99081.22;4992588;28;875;-59
2022/08/27 03:20:50;;;;;;;;;;;;;;;19.55;69.71;99082.19;4975112;28;1222;-59
2022/08/27 03:23:18;;;;;;;;;;;;;;;19.53;69.76;99084.69;4992540;28;828;-59
2022/08/27 03:25:50;;;;;;;;;;;;;;;19.53;69.86;99084.69;4992480;28;840;-59
2022/08/27 03:28:18;;;;;;;;;;;;;;;19.52;69.83;99080.34;4992430;28;957;-59
2022/08/27 03:30:50;;;;;;;;;;;;;;;19.53;69.91;99082.66;4992358;28;1919;-59
2022/08/27 03:33:18;;;;;;;;;;;;;;;19.56;70.14;99080.91;4992493;28;915;-59
2022/08/27 03:35:46;;;;;;;;;;;;;;;19.60;69.99;99078.69;4993312;28;847;-59
2022/08/27 03:38:13;;;;;;;;;;;;;;;19.64;69.89;99078.53;4992462;28;809;-59
2022/08/27 03:40:41;;;;;;;;;;;;;;;19.68;69.70;99079.09;4975024;28;1359;-59
2022/08/27 03:43:08;;;;;;;;;;;;;;;19.70;69.62;99080.19;4992462;28;801;-59
2022/08/27 03:45:35;;;;;;;;;;;;;;;19.74;69.69;99082.81;4974908;28;1507;-59
2022/08/27 03:48:02;;;;;;;;;;;;;;;19.77;69.44;99079.78;4992063;28;871;-59
2022/08/27 03:50:29;;;;;;;;;;;;;;;19.79;69.52;99074.47;4974895;28;1941;-59
2022/08/27 03:52:55;;;;;;;;;;;;;;;19.83;69.47;99081.94;4992436;28;820;-59
2022/08/27 03:55:23;;;;;;;;;;;;;;;19.88;69.15;99078.44;4974935;28;1224;-59
2022/08/27 03:57:49;;;;;;;;;;;;;;;19.93;69.13;99086.19;4974942;28;1217;-59
2022/08/27 04:00:16;;;;;;;;;;;;;;;19.97;68.79;99081.94;4992330;28;820;-59
2022/08/27 04:02:43;;;;;;;;;;;;;;;20.06;68.40;99069.06;4992404;28;801;-59
2022/08/27 04:05:11;;;;;;;;;;;;;;;20.13;68.08;99072.22;4992264;28;800;-59
2022/08/27 04:07:38;;;;;;;;;;;;;;;20.19;67.82;99075.91;4992116;28;890;-59
2022/08/27 04:10:08;;;;;;;;;;;;;;;20.25;67.66;99081.59;4992024;28;2001;-59
2022/08/27 04:12:36;;;;;;;;;;;;;;;20.30;67.68;99074.53;4991840;28;1283;-59
2022/08/27 04:15:03;;;;;;;;;;;;;;;20.35;67.82;99082.25;4992008;28;832;-59
2022/08/27 04:17:30;;;;;;;;;;;;;;;20.38;67.77;99086.91;4974444;28;1364;-59
2022/08/27 04:20:07;;;;;;;;;;;;;;;20.40;67.67;99090.00;4974455;28;1296;-59
2022/08/27 04:22:34;;;;;;;;;;;;;;;20.43;67.87;99094.63;4991823;28;1237;-59
2022/08/27 04:25:01;;;;;;;;;;;;;;;20.47;67.86;99094.44;4991831;28;871;-59
2022/08/27 04:27:28;;;;;;;;;;;;;;;20.48;67.93;99090.34;4991856;28;871;-59
2022/08/27 04:29:59;;;;;;;;;;;;;;;20.51;68.00;99092.97;4991757;28;1981;-59
2022/08/27 04:32:27;;;;;;;;;;;;;;;20.51;67.91;99095.75;4992394;28;899;-59
2022/08/27 04:35:00;;;;;;;;;;;;;;;20.50;68.01;99099.81;4991867;28;804;-59
2022/08/27 04:37:33;;;;;;;;;;;;;;;20.50;68.26;99088.59;4974238;28;1410;-59
2022/08/27 04:40:00;;;;;;;;;;;;;;;20.49;68.25;99092.69;4991715;28;836;-59
2022/08/27 04:42:27;;;;;;;;;;;;;;;20.44;68.45;99096.19;4991761;28;848;-59
2022/08/27 04:44:54;;;;;;;;;;;;;;;20.38;68.66;99098.13;4991657;28;808;-59
2022/08/27 04:47:21;;;;;;;;;;;;;;;20.33;68.96;99102.41;4974265;28;1252;-59
2022/08/27 04:49:47;;;;;;;;;;;;;;;;;;4974087;28;1945;-59
2022/08/27 04:52:14;;;;;;;;;;;;;;;20.40;68.63;99098.41;4974143;28;1423;-59
2022/08/27 04:54:41;;;;;;;;;;;;;;;20.54;68.35;99102.44;4974096;28;1213;-59
2022/08/27 04:57:08;;;;;;;;;;;;;;;20.73;67.06;99109.38;4974118;28;1209;-59
2022/08/27 04:59:36;;;;;;;;;;;;;;;21.01;66.24;99106.16;4992659;28;809;-59
2022/08/27 05:02:04;;;;;;;;;;;;;;;21.27;64.99;99109.03;4995119;28;879;-59
2022/08/27 05:04:31;;;;;;;;;;;;;;;21.52;64.02;99104.75;4977545;28;1229;-59
2022/08/27 05:07:00;;;;;;;;;;;;;;;21.74;63.22;99104.22;4977435;28;1487;-59
2022/08/27 05:09:26;;;;;;;;;;;;;;;21.94;62.19;99111.81;4977513;28;1272;-59
2022/08/27 05:11:54;;;;;;;;;;;;;;;22.19;61.86;99110.22;4974022;28;1945;-59
2022/08/27 05:14:22;;;;;;;;;;;;;;;22.43;60.92;99117.59;4975512;28;844;-59
2022/08/27 05:16:49;;;;;;;;;;;;;;;22.68;60.34;99110.34;4975380;28;907;-59
2022/08/27 05:19:16;;;;;;;;;;;;;;;22.98;59.17;99116.38;4974105;28;1351;-59
2022/08/27 05:21:46;;;;;;;;;;;;;;;23.21;58.44;99108.03;4975278;28;832;-59
2022/08/27 05:24:13;;;;;;;;;;;;;;;23.36;57.88;99113.47;4975334;28;852;-59
2022/08/27 05:26:40;;;;;;;;;;;;;;;23.52;57.75;99109.19;4975227;28;801;-58
2022/08/27 05:29:07;;;;;;;;;;;;;;;23.66;57.13;99113.81;4973973;28;1221;-58
2022/08/27 05:31:35;;;;;;;;;;;;;;;23.80;55.84;99112.84;4975016;28;1973;-58
2022/08/27 05:34:02;;;;;;;;;;;;;;;23.99;55.49;99115.94;4973858;28;1284;-59
2022/08/27 05:36:31;;;;;;;;;;;;;;;24.20;55.03;99115.69;4973658;28;1332;-59
2022/08/27 05:38:58;;;;;;;;;;;;;;;24.43;54.21;99119.25;4975231;28;820;-58
2022/08/27 05:41:28;;;;;;;;;;;;;;;24.65;53.13;99118.50;4975262;28;884;-59
2022/08/27 05:44:00;;;;;;;;;;;;;;;24.93;52.26;99120.50;4973638;28;1288;-59
2022/08/27 05:46:29;;;;;;;;;;;;;;;25.13;51.74;99117.31;4975021;28;825;-59
2022/08/27 05:48:57;;;;;;;;;;;;;;;25.34;50.84;99117.78;4973587;28;1224;-59
2022/08/27 05:51:24;;;;;;;;;;;;;;;25.54;50.20;99115.88;4974817;28;1957;-58
2022/08/27 05:53:54;;;;;;;;;;;;;;;25.71;49.48;99116.56;4974734;28;857;-58
2022/08/27 05:56:23;;;;;;;;;;;;;;;25.97;49.22;99118.97;4975056;28;828;-59
2022/08/27 06:01:39;;;;;;;;;;;;;;;26.66;47.36;99111.44;4974604;28;663;-59
2022/08/27 06:04:07;;;;;;;;;;;;;;;26.67;47.20;99110.13;4974589;28;875;-59
2022/08/27 06:06:38;;;;;;;;;;;;;;;26.60;47.42;99107.88;4974387;28;860;-58
2022/08/27 06:09:04;;;;;;;;;;;;;;;26.75;47.37;99107.47;4974763;28;832;-59
2022/08/27 06:11:31;;;;;;;;;;;;;;;26.78;47.17;99118.53;4975182;28;1948;-59
2022/08/27 06:13:58;;;;;;;;;;;;;;;26.88;47.12;99104.75;4994074;28;879;-59
2022/08/27 06:16:26;;;;;;;;;;;;;;;27.00;46.14;99111.06;4976611;28;1245;-59
2022/08/27 06:18:56;;;;;;;;;;;;;;;27.26;46.45;99107.66;4993731;28;910;-59
2022/08/27 06:21:24;;;;;;;;;;;;;;;27.70;45.00;99114.03;4993964;28;848;-59
2022/08/27 06:23:51;;;;;;;;;;;;;;;28.06;44.79;99123.06;4993858;28;903;-59
2022/08/27 06:26:19;;;;;;;;;;;;;;;28.46;43.15;99123.19;4993563;28;832;-59
2022/08/27 06:28:46;;;;;;;;;;;;;;;28.67;42.06;99119.72;4993559;28;875;-59
2022/08/27 06:31:16;;;;;;;;;;;;;;;28.95;42.25;99126.94;4993407;28;2001;-59
2022/08/27 06:33:44;;;;;;;;;;;;;;;29.35;41.35;99130.53;4975953;28;1293;-59
2022/08/27 06:36:11;;;;;;;;;;;;;;;29.80;40.35;99128.81;4993256;28;816;-59
2022/08/27 06:38:39;;;;;;;;;;;;;;;30.23;39.48;99136.81;4993381;28;824;-59
2022/08/27 06:41:06;;;;;;;;;;;;;;;30.59;39.10;99135.44;4993225;28;935;-59
2022/08/27 06:43:35;;;;;;;;;;;;;;;31.02;38.39;99139.75;4993234;28;860;-59
2022/08/27 06:46:03;;;;;;;;;;;;;;;31.81;36.73;99132.50;4993179;28;859;-59
2022/08/27 06:48:31;;;;;;;;;;;;;;;32.33;35.97;99132.41;4993131;28;956;-59
2022/08/27 06:51:00;;;;;;;;;;;;;;;32.93;35.33;99141.53;4992981;28;1886;-59
2022/08/27 06:53:31;;;;;;;;;;;;;;;33.45;34.19;99144.81;4993334;28;836;-59
2022/08/27 06:55:57;;;;;;;;;;;;;;;33.90;32.87;99154.56;4993527;28;872;-59
2022/08/27 06:58:28;;;;;;;;;;;;;;;34.42;32.01;99153.28;4993115;28;911;-59
2022/08/27 07:00:57;;;;;;;;;;;;;;;34.99;31.13;99161.00;4993004;28;817;-59
2022/08/27 07:06:28;;;;;;;;;;;;;;;35.83;30.35;99158.50;4992864;28;816;-59
2022/08/27 07:08:59;;;;;;;;;;;;;;;36.00;29.91;99158.47;4993036;28;840;-59
2022/08/27 07:11:32;;;;;;;;;;;;;;;36.05;29.25;99156.69;4992925;28;1890;-59
2022/08/27 07:13:59;;;;;;;;;;;;;;;36.18;28.95;99162.06;4973308;28;951;-59
2022/08/27 07:16:27;;;;;;;;;;;;;;;36.50;28.97;99155.22;4971905;28;1201;-59
2022/08/27 07:18:56;;;;;;;;;;;;;;;36.63;27.79;99154.06;4973232;28;852;-59
2022/08/27 07:21:24;;;;;;;;;;;;;;;36.91;26.45;99157.59;4973149;28;844;-59
2022/08/27 07:23:52;;;;;;;;;;;;;;;37.03;26.38;99152.78;4971501;28;1434;-59
2022/08/27 07:26:21;;;;;;;;;;;;;;;36.90;26.00;99161.84;4973050;28;883;-59
2022/08/27 07:28:48;;;;;;;;;;;;;;;36.24;25.79;99165.41;4971822;28;1364;-59
2022/08/27 07:31:17;;;;;;;;;;;;;;;35.67;26.17;99157.97;4972943;28;1979;-59
2022/08/27 07:33:44;;;;;;;;;;;;;;;35.43;26.86;99159.59;4971576;28;1328;-59
2022/08/27 07:36:11;;;;;;;;;;;;;;;35.36;27.01;99167.72;4972957;28;895;-59
2022/08/27 07:38:38;;;;;;;;;;;;;;;35.51;26.43;99163.91;4971703;28;1201;-59
2022/08/27 07:41:05;;;;;;;;;;;;;;;35.71;25.94;99169.81;4972866;28;831;-59
2022/08/27 07:46:17;;;;;;;;;;;;;;;34.98;26.89;99170.97;4973195;28;623;-59
2022/08/27 07:48:44;;;;;;;;;;;;;;;35.77;26.71;99168.19;4971484;28;1355;-59
2022/08/27 07:51:16;;;;;;;;;;;;;;;35.86;26.22;99160.97;4971482;28;1886;-59
2022/08/27 07:53:47;;;;;;;;;;;;;;;35.96;26.12;99167.53;4972963;28;1514;-59
2022/08/27 07:56:14;;;;;;;;;;;;;;;36.02;26.10;99161.53;4972704;28;871;-59
2022/08/27 07:58:40;;;;;;;;;;;;;;;35.92;25.54;99172.94;4972719;28;828;-59
2022/08/27 08:01:07;;;;;;;;;;;;;;;35.69;25.88;99166.75;4971370;28;1364;-59
2022/08/27 08:03:34;;;;;;;;;;;;;;;35.54;25.81;99168.44;4971246;28;1189;-59
2022/08/27 08:06:09;;;;;;;;;;;;;;;35.78;25.98;99163.19;4971483;28;1401;-59
2022/08/27 08:08:38;;;;;;;;;;;;;;;36.32;25.25;99163.19;4972641;28;962;-59
2022/08/27 08:11:06;;;;;;;;;;;;;;;36.78;24.25;99155.91;4972699;28;1911;-59
2022/08/27 08:13:34;;;;;;;;;;;;;;;37.02;24.67;99159.13;4988473;28;1282;-59
2022/08/27 08:16:01;;;;;;;;;;;;;;;37.32;24.69;99154.91;4991870;28;905;-60
2022/08/27 08:18:59;;;;;;;;;;;;;;;37.66;24.16;99153.09;4974469;28;1426;-59
2022/08/27 08:21:38;;;;;;;;;;;;;;;37.90;23.91;99160.63;4991821;28;860;-59
2022/08/27 08:24:25;;;;;;;;;;;;;;;37.26;23.68;99163.13;4991899;28;808;-59
2022/08/27 08:26:54;;;;;;;;;;;;;;;36.66;24.29;99166.47;4991809;28;824;-59
2022/08/27 08:29:23;;;;;;;;;;;;;;;36.13;24.97;99174.63;4991853;28;919;-59
2022/08/27 08:31:56;;;;;;;;;;;;;;;35.80;25.35;99169.09;4991756;28;1918;-59
2022/08/27 08:34:27;;;;;;;;;;;;;;;35.07;25.98;99167.44;4994051;28;895;-59
2022/08/27 08:36:53;;;;;;;;;;;;;;;34.88;26.43;99167.25;4995624;28;817;-59
2022/08/27 08:39:20;;;;;;;;;;;;;;;35.21;26.48;99164.25;4995560;28;883;-59
2022/08/27 08:41:59;;;;;;;;;;;;;;;35.08;26.39;99174.72;4995497;28;868;-59
2022/08/27 08:44:37;;;;;;;;;;;;;;;34.82;26.50;99176.09;4995459;28;837;-60
2022/08/27 08:47:08;;;;;;;;;;;;;;;35.01;26.77;99177.66;4995674;28;828;-59
2022/08/27 08:49:39;;;;;;;;;;;;;;;35.39;26.66;99177.25;4995313;28;872;-59
2022/08/27 08:52:33;;;;;;;;;;;;;;;35.41;26.89;99186.03;4995402;28;1895;-59
2022/08/27 08:55:12;;;;;;;;;;;;;;;35.80;26.07;99180.59;4966065;28;1332;-59
2022/08/27 08:57:46;;;;;;;;;;;;;;;35.52;26.08;99173.25;4995179;28;880;-59
2022/08/27 09:00:30;;;;;;;;;;;;;;;35.82;26.40;99188.63;4995674;28;825;-59
2022/08/27 09:02:58;;;;;;;;;;;;;;;35.99;25.75;99180.69;4995039;28;880;-59
2022/08/27 09:05:29;;;;;;;;;;;;;;;35.90;25.96;99177.78;4994988;28;884;-59
2022/08/27 09:08:05;;;;;;;;;;;;;;;35.97;26.34;99179.78;4995167;28;877;-59
2022/08/27 09:10:34;;;;;;;;;;;;;;;36.18;25.49;99182.19;4977291;28;1882;-59
2022/08/27 09:13:05;;;;;;;;;;;;;;;36.44;25.71;99171.25;4991492;28;1408;-58
2022/08/27 09:15:45;;;;;;;;;;;;;;;36.48;24.64;99169.44;4994829;28;829;-59
2022/08/27 09:18:34;;;;;;;;;;;;;;;36.09;25.63;99174.25;4977344;28;1293;-59
2022/08/27 09:24:22;;;;;;;;;;;;;;;35.98;25.60;99176.31;4994824;28;674;-59
2022/08/27 09:26:49;;;;;;;;;;;;;;;36.48;24.90;99169.44;4994918;28;892;-59
2022/08/27 09:29:47;;;;;;;;;;;;;;;36.59;24.67;99165.22;4995344;28;1198;-59
2022/08/27 09:32:14;;;;;;;;;;;;;;;36.77;24.43;99163.81;4994290;28;1907;-59
2022/08/27 09:34:43;;;;;;;;;;;;;;;37.14;24.49;99163.72;4994572;28;800;-59
2022/08/27 09:37:19;;;;;;;;;;;;;;;37.25;24.20;99162.34;4994542;28;840;-59
2022/08/27 09:39:49;;;;;;;;;;;;;;;36.86;24.57;99158.66;4977226;28;1269;-59
2022/08/27 09:42:28;;;;;;;;;;;;;;;37.01;24.42;99157.63;4976978;28;1253;-59
2022/08/27 09:44:55;;;;;;;;;;;;;;;36.97;24.42;99155.19;4993600;28;903;-59
2022/08/27 09:47:23;;;;;;;;;;;;;;;36.97;24.56;99163.81;4994411;28;863;-59
2022/08/27 09:50:01;;;;;;;;;;;;;;;37.11;24.03;99150.53;4994257;28;860;-59
2022/08/27 09:52:32;;;;;;;;;;;;;;;37.51;23.95;99149.16;4976829;28;831;-59
2022/08/27 09:54:59;;;;;;;;;;;;;;;37.38;23.74;99143.84;4976715;28;1253;-58
2022/08/27 09:57:33;;;;;;;;;;;;;;;37.21;24.14;99138.25;4994170;28;820;-59
2022/08/27 09:59:59;;;;;;;;;;;;;;;37.33;24.24;99139.91;4994114;28;817;-59
2022/08/27 10:02:27;;;;;;;;;;;;;;;37.40;24.04;99144.00;4993898;28;793;-59
2022/08/27 10:05:01;;;;;;;;;;;;;;;37.11;24.36;99144.78;4976525;28;1410;-59
2022/08/27 10:07:51;;;;;;;;;;;;;;;37.19;24.50;99148.25;4994137;28;879;-59
2022/08/27 10:10:38;;;;;;;;;;;;;;;36.58;24.77;99146.47;4993633;28;1960;-59
2022/08/27 10:13:27;;;;;;;;;;;;;;;36.18;24.90;99148.44;4993327;28;1578;-59
2022/08/27 10:15:57;;;;;;;;;;;;;;;36.16;25.46;99156.16;4993793;28;864;-59
2022/08/27 10:18:33;;;;;;;;;;;;;;;36.42;25.08;99142.31;4993830;28;813;-59
2022/08/27 10:20:59;;;;;;;;;;;;;;;36.63;24.37;99148.31;4993692;28;804;-59
2022/08/27 10:23:30;;;;;;;;;;;;;;;37.01;24.10;99146.84;4993601;28;829;-59
2022/08/27 10:26:19;;;;;;;;;;;;;;;37.30;23.64;99149.00;4993884;28;904;-59
2022/08/27 10:28:58;;;;;;;;;;;;;;;37.70;23.48;99138.97;4976288;28;2079;-59
2022/08/27 10:31:31;;;;;;;;;;;;;;;37.72;23.52;99133.34;4993374;28;1906;-58
2022/08/27 10:34:13;;;;;;;;;;;;;;;37.08;22.90;99140.19;4993425;28;852;-59
2022/08/27 10:37:00;;;;;;;;;;;;;;;36.83;23.25;99139.69;4993290;28;950;-58
2022/08/27 10:39:50;;;;;;;;;;;;;;;36.72;23.44;99147.59;4993369;28;821;-59
2022/08/27 10:42:22;;;;;;;;;;;;;;;36.34;23.83;99137.47;4993244;28;914;-59
2022/08/27 10:45:07;;;;;;;;;;;;;;;36.30;25.02;99139.25;4975807;28;1436;-60
2022/08/27 10:47:54;;;;;;;;;;;;;;;36.24;25.16;99136.66;4993172;28;844;-60
2022/08/27 10:50:21;;;;;;;;;;;;;;;36.34;25.42;99143.22;4975589;28;1938;-60
2022/08/27 10:52:55;;;;;;;;;;;;;;;36.23;25.13;99134.38;4993092;28;884;-59
2022/08/27 10:55:30;;;;;;;;;;;;;;;36.03;25.58;99128.50;4993319;28;836;-59
2022/08/27 10:58:12;;;;;;;;;;;;;;;36.09;25.33;99134.00;4992057;28;848;-61
2022/08/27 11:00:43;;;;;;;;;;;;;;;35.72;25.08;99137.59;4975423;28;1153;-60
2022/08/27 11:03:20;;;;;;;;;;;;;;;34.86;26.02;99136.25;4992877;28;821;-60
2022/08/27 11:05:50;;;;;;;;;;;;;;;34.35;27.03;99147.03;4975385;28;1261;-62
2022/08/27 11:08:24;;;;;;;;;;;;;;;33.97;27.81;99138.69;4975364;28;1415;-61
2022/08/27 11:11:01;;;;;;;;;;;;;;;33.74;28.25;99141.69;4992858;28;1882;-62
2022/08/27 11:13:45;;;;;;;;;;;;;;;33.54;28.54;99140.59;4992435;28;1311;-62
2022/08/27 11:16:18;;;;;;;;;;;;;;;33.58;28.78;99146.69;4992694;28;891;-62
2022/08/27 11:18:51;;;;;;;;;;;;;;;33.76;28.38;99142.63;4992580;28;871;-62
2022/08/27 11:21:34;;;;;;;;;;;;;;;33.80;29.01;99142.22;4975195;28;1359;-62
2022/08/27 11:24:20;;;;;;;;;;;;;;;33.63;28.47;99144.97;4992524;28;880;-62
2022/08/27 11:26:51;;;;;;;;;;;;;;;33.65;28.48;99143.06;4962218;28;1196;-62
2022/08/27 11:29:21;;;;;;;;;;;;;;;33.70;28.75;99139.22;4993146;28;832;-62
2022/08/27 11:31:56;;;;;;;;;;;;;;;33.65;29.40;99142.28;4974824;28;1915;-62
2022/08/27 11:34:38;;;;;;;;;;;;;;;34.05;29.28;99139.38;4975025;28;1391;-62
2022/08/27 11:37:07;;;;;;;;;;;;;;;35.90;27.98;99131.78;4992379;28;864;-61
2022/08/27 11:39:52;;;;;;;;;;;;;;;37.44;26.41;99138.53;4975003;28;1328;-61
2022/08/27 11:42:32;;;;;;;;;;;;;;;38.74;24.79;99136.91;4974773;28;1422;-61
2022/08/27 11:45:05;;;;;;;;;;;;;;;39.20;24.18;99136.44;4974833;28;1356;-60
2022/08/27 11:47:32;;;;;;;;;;;;;;;38.49;24.02;99140.22;4974995;28;1264;-61
2022/08/27 11:50:01;;;;;;;;;;;;;;;38.08;24.63;99143.88;4992271;28;1886;-61
2022/08/27 11:52:32;;;;;;;;;;;;;;;38.40;24.43;99139.63;4974670;28;1442;-61
2022/08/27 11:55:15;;;;;;;;;;;;;;;38.71;23.78;99141.78;4992119;28;860;-61
2022/08/27 11:57:42;;;;;;;;;;;;;;;39.10;23.93;99135.75;4992203;28;828;-61
2022/08/27 12:00:11;;;;;;;;;;;;;;;38.94;24.01;99138.28;4974573;28;1225;-60
2022/08/27 12:02:39;;;;;;;;;;;;;;;38.90;24.19;99145.91;4974652;28;1261;-61
2022/08/27 12:05:20;;;;;;;;;;;;;;;38.80;24.37;99152.50;4974618;28;1299;-61
2022/08/27 12:07:50;;;;;;;;;;;;;;;37.96;25.40;99161.06;4992175;28;821;-60
2022/08/27 12:10:51;;;;;;;;;;;;;;;37.65;25.85;99151.59;4996177;28;1957;-60
2022/08/27 12:13:22;;;;;;;;;;;;;;;37.33;26.72;99153.56;4995930;28;1469;-61
2022/08/27 12:16:01;;;;;;;;;;;;;;;36.45;27.71;99152.63;4996014;28;856;-60
2022/08/27 12:18:35;;;;;;;;;;;;;;;35.50;28.43;99153.00;4996207;28;892;-61
2022/08/27 12:21:14;;;;;;;;;;;;;;;35.23;28.31;99147.97;4995905;28;846;-61
2022/08/27 12:24:00;;;;;;;;;;;;;;;35.25;28.67;99141.59;4995840;28;829;-61
2022/08/27 12:26:32;;;;;;;;;;;;;;;35.52;28.22;99148.16;4995831;28;841;-62
2022/08/27 12:29:29;;;;;;;;;;;;;;;36.76;27.61;99136.34;4995678;28;841;-61
2022/08/27 12:32:21;;;;;;;;;;;;;;;38.55;25.47;99123.34;4995547;28;1914;-60
2022/08/27 12:35:08;;;;;;;;;;;;;;;38.71;24.41;99126.59;4978207;28;872;-61
2022/08/27 12:37:37;;;;;;;;;;;;;;;37.59;25.54;99123.81;4995735;28;844;-61
2022/08/27 12:40:12;;;;;;;;;;;;;;;37.15;26.19;99127.78;4995555;28;856;-61
2022/08/27 12:42:39;;;;;;;;;;;;;;;36.84;26.22;99124.72;4978054;28;1311;-61
2022/08/27 12:45:07;;;;;;;;;;;;;;;37.80;25.67;99123.16;4995475;28;824;-61
2022/08/27 12:47:40;;;;;;;;;;;;;;;38.95;24.64;99128.25;4995414;28;876;-61
2022/08/27 12:50:07;;;;;;;;;;;;;;;39.19;23.68;99128.38;4995285;28;1958;-62
2022/08/27 12:52:46;;;;;;;;;;;;;;;39.57;23.22;99127.28;4977903;28;1459;-61
2022/08/27 12:55:16;;;;;;;;;;;;;;;39.99;22.79;99116.94;4995235;28;856;-61
2022/08/27 12:57:49;;;;;;;;;;;;;;;40.19;22.58;99120.34;4995230;28;1168;-61
2022/08/27 13:00:19;;;;;;;;;;;;;;;40.14;21.55;99124.38;4995055;28;817;-61
2022/08/27 13:03:00;;;;;;;;;;;;;;;40.13;21.95;99117.06;4995498;28;868;-61
2022/08/27 13:05:37;;;;;;;;;;;;;;;40.24;21.58;99120.59;4995102;28;821;-62
2022/08/27 13:08:03;;;;;;;;;;;;;;;40.60;21.32;99104.72;4995211;28;836;-61
2022/08/27 13:10:31;;;;;;;;;;;;;;;40.89;21.79;99106.44;4995014;28;1953;-61
2022/08/27 13:13:05;;;;;;;;;;;;;;;41.15;21.28;99110.91;4994682;28;1275;-61
2022/08/27 13:15:33;;;;;;;;;;;;;;;41.26;21.01;99111.50;4995014;28;821;-61
2022/08/27 13:18:02;;;;;;;;;;;;;;;40.32;21.51;99109.53;4977287;28;1228;-61
2022/08/27 13:20:30;;;;;;;;;;;;;;;38.83;23.87;99110.06;4976353;28;1173;-62
2022/08/27 13:22:57;;;;;;;;;;;;;;;38.08;25.43;99123.69;4994718;28;907;-61
2022/08/27 13:25:28;;;;;;;;;;;;;;;38.33;25.46;99119.66;4977294;28;1237;-61
2022/08/27 13:28:07;;;;;;;;;;;;;;;38.11;25.56;99119.59;4994617;28;896;-62
2022/08/27 13:30:36;;;;;;;;;;;;;;;38.24;25.28;99111.78;4994603;28;1919;-60
2022/08/27 13:33:13;;;;;;;;;;;;;;;38.48;24.85;99110.59;4977131;28;1228;-61
2022/08/27 13:35:42;;;;;;;;;;;;;;;38.65;25.29;99117.53;4994753;28;1030;-61
2022/08/27 13:38:09;;;;;;;;;;;;;;;38.44;25.09;99115.34;4994486;28;825;-61
2022/08/27 13:40:37;;;;;;;;;;;;;;;38.08;25.59;99122.94;4994734;28;887;-62
2022/08/27 13:43:12;;;;;;;;;;;;;;;37.67;25.95;99129.41;4994399;28;763;-62
2022/08/27 13:45:40;;;;;;;;;;;;;;;37.58;26.14;99119.44;4994371;28;888;-61